createdAt,value
2022-12-22T00:00:46.267Z,376.27
2022-12-22T00:01:44.924Z,375.42
2022-12-22T00:02:40.695Z,376.70
2022-12-22T00:03:40.744Z,376.27
2022-12-22T00:04:40.620Z,375.84
2022-12-22T00:05:40.685Z,375.84
2022-12-22T00:06:40.742Z,373.30
2022-12-22T00:07:40.839Z,372.04
2022-12-22T00:08:40.937Z,375.42
2022-12-22T00:09:41.006Z,376.27
2022-12-22T00:10:41.098Z,375.42
2022-12-22T00:11:41.181Z,376.27
2022-12-22T00:12:41.244Z,376.27
2022-12-22T00:13:41.322Z,375.84
2022-12-22T00:14:41.472Z,372.46
2022-12-22T00:15:41.509Z,372.88
2022-12-22T00:16:41.690Z,374.57
2022-12-22T00:17:41.684Z,374.57
2022-12-22T00:18:41.766Z,375.42
2022-12-22T00:19:41.857Z,372.04
2022-12-22T00:20:41.938Z,373.30
2022-12-22T00:21:42.019Z,374.57
2022-12-22T00:22:42.103Z,376.27
2022-12-22T00:23:42.196Z,375.42
2022-12-22T00:24:42.280Z,375.42
2022-12-22T00:25:42.337Z,373.30
2022-12-22T00:26:42.438Z,376.27
2022-12-22T00:27:45.711Z,374.14
2022-12-22T00:28:42.592Z,374.99
2022-12-22T00:29:42.682Z,374.99
2022-12-22T00:30:42.850Z,374.14
2022-12-22T00:31:49.051Z,374.57
2022-12-22T00:32:42.947Z,374.99
2022-12-22T00:33:43.081Z,374.14
2022-12-22T00:34:43.129Z,374.57
2022-12-22T00:35:43.186Z,375.42
2022-12-22T00:36:43.242Z,374.57
2022-12-22T00:37:43.335Z,374.99
2022-12-22T00:38:43.404Z,372.04
2022-12-22T00:39:43.487Z,372.46
2022-12-22T00:40:43.595Z,374.57
2022-12-22T00:41:43.638Z,372.46
2022-12-22T00:42:43.721Z,371.62
2022-12-22T00:43:43.802Z,374.57
2022-12-22T00:44:43.892Z,374.57
2022-12-22T00:45:44.056Z,374.57
2022-12-22T00:46:44.031Z,372.04
2022-12-22T00:47:44.152Z,374.14
2022-12-22T00:48:44.206Z,373.30
2022-12-22T00:49:44.287Z,374.99
2022-12-22T00:50:44.340Z,373.72
2022-12-22T00:51:44.452Z,370.79
2022-12-22T00:52:44.581Z,374.14
2022-12-22T00:53:44.641Z,372.04
2022-12-22T00:54:44.650Z,374.14
2022-12-22T00:55:44.744Z,374.57
2022-12-22T00:56:44.797Z,374.57
2022-12-22T00:57:44.881Z,373.72
2022-12-22T00:58:44.974Z,372.88
2022-12-22T00:59:45.071Z,374.57
2022-12-22T01:00:45.154Z,374.57
2022-12-22T01:01:45.412Z,373.72
2022-12-22T01:02:51.459Z,374.14
2022-12-22T01:03:45.496Z,374.57
2022-12-22T01:04:45.557Z,372.04
2022-12-22T01:05:45.630Z,374.57
2022-12-22T01:06:45.702Z,374.57
2022-12-22T01:07:45.798Z,374.14
2022-12-22T01:08:45.884Z,372.04
2022-12-22T01:09:45.966Z,375.84
2022-12-22T01:10:46.074Z,376.27
2022-12-22T01:11:46.131Z,370.37
2022-12-22T01:12:46.230Z,372.04
2022-12-22T01:13:46.304Z,373.30
2022-12-22T01:14:46.367Z,372.88
2022-12-22T01:15:46.472Z,372.88
2022-12-22T01:16:46.518Z,374.57
2022-12-22T01:17:46.597Z,373.30
2022-12-22T01:18:46.683Z,374.14
2022-12-22T01:19:46.777Z,373.72
2022-12-22T01:20:46.854Z,372.88
2022-12-22T01:21:46.919Z,373.30
2022-12-22T01:22:47.010Z,374.57
2022-12-22T01:23:47.078Z,372.46
2022-12-22T01:24:47.156Z,374.14
2022-12-22T01:25:47.243Z,373.30
2022-12-22T01:26:47.333Z,374.14
2022-12-22T01:27:47.415Z,374.14
2022-12-22T01:28:47.490Z,370.79
2022-12-22T01:29:47.555Z,374.14
2022-12-22T01:30:47.695Z,374.14
2022-12-22T01:31:47.708Z,374.14
2022-12-22T01:32:47.806Z,372.88
2022-12-22T01:33:54.096Z,372.04
2022-12-22T01:34:47.983Z,370.79
2022-12-22T01:35:48.055Z,373.30
2022-12-22T01:36:48.126Z,372.04
2022-12-22T01:37:48.233Z,373.72
2022-12-22T01:38:48.311Z,372.46
2022-12-22T01:39:48.437Z,373.72
2022-12-22T01:40:48.505Z,372.04
2022-12-22T01:41:48.613Z,374.57
2022-12-22T01:42:48.646Z,372.88
2022-12-22T01:43:48.727Z,372.04
2022-12-22T01:44:48.830Z,372.88
2022-12-22T01:45:48.988Z,373.72
2022-12-22T01:46:49.129Z,374.14
2022-12-22T01:47:49.094Z,372.04
2022-12-22T01:48:49.183Z,372.46
2022-12-22T01:49:49.267Z,374.57
2022-12-22T01:50:49.362Z,373.30
2022-12-22T01:51:49.427Z,369.54
2022-12-22T01:52:49.497Z,373.72
2022-12-22T01:53:49.595Z,374.14
2022-12-22T01:54:49.690Z,372.46
2022-12-22T01:55:49.781Z,371.20
2022-12-22T01:56:49.832Z,372.88
2022-12-22T01:57:49.914Z,374.14
2022-12-22T01:58:50.007Z,372.88
2022-12-22T01:59:50.163Z,371.20
2022-12-22T02:00:50.213Z,373.72
2022-12-22T02:01:50.357Z,373.30
2022-12-22T02:02:50.564Z,374.14
2022-12-22T02:03:50.460Z,372.04
2022-12-22T02:04:56.455Z,372.46
2022-12-22T02:05:50.538Z,372.88
2022-12-22T02:06:56.196Z,370.37
2022-12-22T02:07:50.740Z,371.62
2022-12-22T02:08:50.830Z,374.14
2022-12-22T02:09:50.920Z,372.88
2022-12-22T02:10:51.019Z,372.46
2022-12-22T02:11:51.121Z,369.54
2022-12-22T02:12:51.229Z,374.57
2022-12-22T02:13:51.260Z,372.46
2022-12-22T02:14:51.364Z,372.46
2022-12-22T02:15:51.469Z,372.88
2022-12-22T02:16:51.520Z,370.37
2022-12-22T02:17:51.641Z,372.46
2022-12-22T02:18:51.705Z,372.46
2022-12-22T02:19:51.787Z,372.46
2022-12-22T02:20:51.844Z,372.04
2022-12-22T02:21:51.945Z,372.88
2022-12-22T02:22:52.023Z,372.88
2022-12-22T02:23:52.615Z,372.88
2022-12-22T02:24:52.191Z,371.62
2022-12-22T02:25:52.283Z,374.99
2022-12-22T02:26:52.360Z,371.62
2022-12-22T02:27:52.431Z,372.46
2022-12-22T02:28:52.521Z,372.46
2022-12-22T02:29:52.632Z,371.62
2022-12-22T02:30:52.708Z,372.88
2022-12-22T02:31:52.772Z,372.46
2022-12-22T02:32:52.863Z,370.37
2022-12-22T02:33:52.946Z,372.46
2022-12-22T02:34:53.049Z,372.04
2022-12-22T02:35:59.146Z,371.62
2022-12-22T02:36:53.174Z,372.88
2022-12-22T02:37:53.270Z,370.37
2022-12-22T02:38:53.363Z,372.88
2022-12-22T02:39:53.466Z,373.30
2022-12-22T02:40:53.532Z,371.20
2022-12-22T02:41:53.639Z,370.37
2022-12-22T02:42:53.679Z,371.20
2022-12-22T02:43:53.777Z,372.04
2022-12-22T02:44:53.873Z,371.62
2022-12-22T02:45:53.964Z,372.04
2022-12-22T02:46:54.123Z,374.14
2022-12-22T02:47:54.145Z,372.88
2022-12-22T02:48:54.203Z,368.72
2022-12-22T02:49:54.307Z,371.20
2022-12-22T02:50:54.402Z,372.04
2022-12-22T02:51:54.502Z,372.88
2022-12-22T02:52:54.665Z,372.04
2022-12-22T02:53:54.645Z,372.04
2022-12-22T02:54:54.706Z,372.46
2022-12-22T02:55:54.781Z,371.20
2022-12-22T02:56:54.867Z,372.04
2022-12-22T02:57:54.952Z,370.37
2022-12-22T02:58:55.080Z,372.04
2022-12-22T02:59:55.143Z,372.04
2022-12-22T03:00:55.207Z,370.37
2022-12-22T03:01:55.456Z,372.88
2022-12-22T03:02:55.603Z,371.20
2022-12-22T03:03:55.611Z,371.62
2022-12-22T03:04:55.542Z,373.30
2022-12-22T03:05:55.633Z,372.04
2022-12-22T03:07:01.717Z,371.20
2022-12-22T03:07:55.830Z,371.62
2022-12-22T03:08:55.927Z,372.04
2022-12-22T03:09:56.020Z,370.37
2022-12-22T03:10:56.077Z,371.20
2022-12-22T03:11:56.166Z,370.79
2022-12-22T03:12:56.264Z,370.79
2022-12-22T03:13:56.352Z,371.62
2022-12-22T03:14:56.476Z,372.04
2022-12-22T03:15:56.616Z,370.79
2022-12-22T03:16:56.614Z,370.79
2022-12-22T03:17:56.716Z,372.04
2022-12-22T03:18:56.855Z,369.95
2022-12-22T03:19:56.876Z,372.04
2022-12-22T03:20:57.019Z,372.04
2022-12-22T03:21:57.023Z,369.95
2022-12-22T03:22:57.110Z,371.62
2022-12-22T03:23:57.201Z,371.62
2022-12-22T03:24:57.300Z,368.31
2022-12-22T03:25:57.399Z,370.37
2022-12-22T03:26:57.520Z,371.62
2022-12-22T03:27:57.542Z,369.13
2022-12-22T03:28:57.618Z,371.20
2022-12-22T03:29:57.681Z,368.31
2022-12-22T03:30:57.899Z,371.20
2022-12-22T03:31:57.989Z,371.20
2022-12-22T03:32:57.937Z,369.95
2022-12-22T03:33:57.978Z,368.72
2022-12-22T03:34:58.083Z,370.79
2022-12-22T03:35:58.167Z,369.54
2022-12-22T03:36:58.249Z,370.37
2022-12-22T03:38:04.689Z,370.37
2022-12-22T03:38:58.405Z,371.20
2022-12-22T03:39:58.507Z,368.72
2022-12-22T03:40:58.596Z,367.90
2022-12-22T03:41:58.699Z,371.20
2022-12-22T03:42:58.800Z,369.13
2022-12-22T03:43:58.894Z,368.31
2022-12-22T03:44:58.978Z,370.79
2022-12-22T03:45:59.036Z,369.95
2022-12-22T03:46:59.248Z,368.31
2022-12-22T03:47:59.220Z,369.13
2022-12-22T03:48:59.306Z,369.13
2022-12-22T03:49:59.473Z,370.79
2022-12-22T03:50:59.449Z,367.49
2022-12-22T03:51:59.556Z,370.79
2022-12-22T03:52:59.606Z,367.49
2022-12-22T03:53:59.669Z,368.31
2022-12-22T03:54:59.773Z,370.37
2022-12-22T03:56:05.680Z,371.20
2022-12-22T03:56:59.912Z,371.62
2022-12-22T03:58:00.005Z,370.79
2022-12-22T03:59:00.120Z,368.72
2022-12-22T04:00:00.195Z,372.04
2022-12-22T04:01:00.349Z,369.95
2022-12-22T04:02:00.563Z,370.37
2022-12-22T04:03:00.541Z,367.90
2022-12-22T04:04:00.525Z,370.37
2022-12-22T04:05:00.616Z,371.62
2022-12-22T04:06:00.710Z,371.20
2022-12-22T04:07:00.750Z,370.37
2022-12-22T04:08:00.843Z,369.54
2022-12-22T04:09:06.915Z,370.79
2022-12-22T04:10:01.005Z,368.31
2022-12-22T04:11:01.073Z,368.31
2022-12-22T04:12:01.177Z,369.95
2022-12-22T04:13:01.235Z,369.95
2022-12-22T04:14:01.298Z,370.37
2022-12-22T04:15:01.382Z,368.31
2022-12-22T04:16:01.548Z,369.54
2022-12-22T04:17:01.690Z,368.72
2022-12-22T04:18:01.784Z,370.79
2022-12-22T04:19:01.753Z,371.20
2022-12-22T04:20:01.829Z,371.20
2022-12-22T04:21:01.934Z,371.20
2022-12-22T04:22:02.012Z,371.20
2022-12-22T04:23:02.080Z,369.95
2022-12-22T04:24:02.158Z,369.54
2022-12-22T04:25:02.209Z,370.79
2022-12-22T04:26:02.296Z,369.95
2022-12-22T04:27:02.373Z,370.37
2022-12-22T04:28:02.456Z,369.95
2022-12-22T04:29:02.567Z,372.04
2022-12-22T04:30:02.583Z,371.62
2022-12-22T04:31:02.654Z,369.54
2022-12-22T04:32:02.810Z,369.95
2022-12-22T04:33:02.861Z,369.95
2022-12-22T04:34:02.920Z,369.95
2022-12-22T04:35:03.024Z,369.54
2022-12-22T04:36:03.090Z,368.31
2022-12-22T04:37:13.008Z,370.79
2022-12-22T04:38:03.252Z,369.95
2022-12-22T04:39:03.319Z,371.20
2022-12-22T04:40:09.758Z,370.79
2022-12-22T04:41:03.493Z,369.95
2022-12-22T04:42:03.566Z,372.46
2022-12-22T04:43:03.654Z,371.20
2022-12-22T04:44:03.748Z,367.49
2022-12-22T04:45:03.827Z,371.20
2022-12-22T04:46:04.039Z,369.54
2022-12-22T04:47:04.017Z,368.72
2022-12-22T04:48:04.102Z,370.79
2022-12-22T04:49:04.185Z,370.37
2022-12-22T04:50:04.264Z,369.13
2022-12-22T04:51:04.364Z,370.37
2022-12-22T04:52:04.470Z,369.54
2022-12-22T04:53:04.576Z,370.79
2022-12-22T04:54:04.629Z,367.90
2022-12-22T04:55:04.707Z,368.31
2022-12-22T04:56:04.806Z,368.31
2022-12-22T04:57:04.870Z,371.20
2022-12-22T04:58:04.982Z,368.31
2022-12-22T04:59:05.052Z,368.31
2022-12-22T05:00:05.125Z,369.95
2022-12-22T05:01:05.251Z,369.95
2022-12-22T05:02:05.428Z,371.20
2022-12-22T05:03:05.525Z,369.13
2022-12-22T05:04:05.482Z,369.95
2022-12-22T05:05:05.558Z,369.95
2022-12-22T05:06:05.656Z,370.37
2022-12-22T05:07:05.743Z,368.72
2022-12-22T05:08:05.822Z,369.95
2022-12-22T05:09:05.905Z,369.95
2022-12-22T05:10:05.998Z,368.72
2022-12-22T05:11:12.053Z,367.90
2022-12-22T05:12:06.140Z,369.95
2022-12-22T05:13:06.200Z,370.37
2022-12-22T05:14:07.557Z,369.95
2022-12-22T05:15:06.364Z,369.54
2022-12-22T05:16:06.480Z,370.37
2022-12-22T05:17:06.643Z,369.54
2022-12-22T05:18:06.620Z,369.54
2022-12-22T05:19:06.690Z,367.90
2022-12-22T05:20:06.781Z,370.79
2022-12-22T05:21:06.885Z,367.49
2022-12-22T05:22:06.960Z,368.72
2022-12-22T05:23:07.022Z,369.54
2022-12-22T05:24:07.083Z,367.90
2022-12-22T05:25:07.185Z,369.13
2022-12-22T05:26:07.285Z,368.31
2022-12-22T05:27:07.378Z,369.13
2022-12-22T05:28:07.447Z,369.54
2022-12-22T05:29:07.506Z,368.72
2022-12-22T05:30:07.571Z,369.13
2022-12-22T05:31:07.737Z,369.54
2022-12-22T05:32:07.722Z,368.31
2022-12-22T05:33:07.825Z,369.13
2022-12-22T05:34:07.899Z,367.90
2022-12-22T05:35:07.959Z,368.31
2022-12-22T05:36:08.051Z,368.31
2022-12-22T05:37:08.181Z,368.72
2022-12-22T05:38:08.225Z,367.49
2022-12-22T05:39:08.338Z,367.49
2022-12-22T05:40:08.402Z,364.65
2022-12-22T05:41:08.492Z,367.49
2022-12-22T05:42:14.565Z,367.49
2022-12-22T05:43:08.645Z,370.79
2022-12-22T05:44:08.762Z,368.31
2022-12-22T05:45:08.837Z,367.90
2022-12-22T05:46:09.006Z,369.13
2022-12-22T05:47:08.994Z,366.67
2022-12-22T05:48:09.092Z,367.08
2022-12-22T05:49:09.185Z,368.31
2022-12-22T05:50:09.259Z,368.31
2022-12-22T05:51:09.336Z,367.90
2022-12-22T05:52:09.429Z,368.72
2022-12-22T05:53:09.484Z,367.90
2022-12-22T05:54:09.578Z,367.90
2022-12-22T05:55:09.697Z,367.90
2022-12-22T05:56:09.776Z,368.72
2022-12-22T05:57:09.858Z,367.49
2022-12-22T05:58:09.947Z,367.90
2022-12-22T05:59:10.020Z,367.49
2022-12-22T06:00:10.104Z,367.49
2022-12-22T06:01:10.185Z,367.08
2022-12-22T06:02:10.358Z,368.31
2022-12-22T06:03:10.425Z,366.67
2022-12-22T06:04:10.526Z,365.05
2022-12-22T06:05:10.462Z,367.08
2022-12-22T06:06:10.607Z,364.65
2022-12-22T06:07:10.663Z,367.08
2022-12-22T06:08:10.744Z,365.86
2022-12-22T06:09:10.825Z,366.67
2022-12-22T06:10:12.658Z,367.90
2022-12-22T06:11:11.002Z,367.49
2022-12-22T06:12:11.107Z,367.49
2022-12-22T06:13:17.155Z,365.86
2022-12-22T06:14:11.272Z,367.08
2022-12-22T06:15:11.355Z,366.67
2022-12-22T06:16:11.556Z,365.05
2022-12-22T06:17:11.554Z,368.31
2022-12-22T06:18:11.617Z,368.31
2022-12-22T06:19:11.710Z,366.67
2022-12-22T06:20:11.773Z,367.08
2022-12-22T06:21:11.839Z,365.86
2022-12-22T06:22:11.967Z,367.08
2022-12-22T06:23:12.057Z,367.49
2022-12-22T06:24:12.124Z,367.08
2022-12-22T06:25:18.128Z,367.08
2022-12-22T06:26:12.308Z,366.67
2022-12-22T06:27:12.382Z,366.27
2022-12-22T06:28:12.443Z,367.08
2022-12-22T06:29:12.545Z,366.27
2022-12-22T06:30:12.623Z,367.08
2022-12-22T06:31:12.730Z,367.90
2022-12-22T06:32:12.787Z,365.86
2022-12-22T06:33:12.871Z,367.49
2022-12-22T06:34:12.958Z,367.90
2022-12-22T06:35:13.070Z,365.46
2022-12-22T06:36:13.142Z,367.49
2022-12-22T06:37:13.204Z,368.31
2022-12-22T06:38:13.291Z,367.49
2022-12-22T06:39:13.347Z,367.90
2022-12-22T06:40:13.459Z,368.31
2022-12-22T06:41:13.563Z,367.49
2022-12-22T06:42:13.611Z,367.90
2022-12-22T06:43:13.694Z,367.08
2022-12-22T06:44:19.778Z,363.45
2022-12-22T06:45:13.907Z,368.31
2022-12-22T06:46:13.991Z,366.67
2022-12-22T06:47:14.062Z,368.31
2022-12-22T06:48:14.129Z,367.08
2022-12-22T06:49:14.229Z,368.31
2022-12-22T06:50:14.305Z,366.67
2022-12-22T06:51:14.388Z,367.08
2022-12-22T06:52:14.511Z,367.49
2022-12-22T06:53:14.609Z,365.05
2022-12-22T06:54:14.622Z,368.72
2022-12-22T06:55:14.719Z,367.49
2022-12-22T06:56:14.784Z,367.49
2022-12-22T06:57:14.865Z,366.67
2022-12-22T06:58:14.958Z,368.31
2022-12-22T06:59:15.016Z,369.13
2022-12-22T07:00:15.119Z,367.08
2022-12-22T07:01:15.287Z,367.90
2022-12-22T07:02:15.502Z,367.90
2022-12-22T07:03:15.657Z,367.08
2022-12-22T07:04:15.579Z,368.31
2022-12-22T07:05:15.623Z,367.90
2022-12-22T07:06:15.673Z,367.08
2022-12-22T07:07:15.731Z,365.86
2022-12-22T07:08:15.810Z,367.90
2022-12-22T07:09:15.909Z,366.67
2022-12-22T07:10:15.996Z,368.72
2022-12-22T07:11:16.043Z,367.08
2022-12-22T07:12:16.127Z,367.08
2022-12-22T07:13:16.222Z,367.49
2022-12-22T07:14:16.288Z,364.25
2022-12-22T07:15:22.864Z,366.67
2022-12-22T07:16:16.521Z,367.90
2022-12-22T07:17:16.539Z,368.72
2022-12-22T07:18:16.621Z,367.90
2022-12-22T07:19:16.714Z,367.90
2022-12-22T07:20:16.806Z,369.13
2022-12-22T07:21:16.913Z,368.31
2022-12-22T07:22:16.990Z,368.72
2022-12-22T07:23:17.076Z,368.72
2022-12-22T07:24:17.159Z,369.54
2022-12-22T07:25:17.256Z,367.90
2022-12-22T07:26:17.369Z,368.72
2022-12-22T07:27:17.447Z,367.49
2022-12-22T07:28:20.936Z,367.49
2022-12-22T07:29:17.607Z,367.49
2022-12-22T07:30:17.686Z,368.31
2022-12-22T07:31:17.870Z,369.13
2022-12-22T07:32:17.896Z,369.54
2022-12-22T07:33:17.993Z,363.85
2022-12-22T07:34:18.070Z,367.08
2022-12-22T07:35:18.144Z,367.49
2022-12-22T07:36:18.255Z,369.54
2022-12-22T07:37:18.346Z,369.13
2022-12-22T07:38:18.866Z,369.13
2022-12-22T07:39:18.496Z,367.49
2022-12-22T07:40:18.575Z,368.72
2022-12-22T07:41:18.656Z,369.13
2022-12-22T07:42:18.760Z,367.90
2022-12-22T07:43:18.826Z,368.31
2022-12-22T07:44:18.889Z,366.27
2022-12-22T07:45:18.959Z,369.95
2022-12-22T07:46:25.144Z,367.49
2022-12-22T07:47:19.146Z,371.62
2022-12-22T07:48:19.233Z,368.72
2022-12-22T07:49:19.323Z,367.08
2022-12-22T07:50:19.441Z,367.08
2022-12-22T07:51:19.492Z,369.13
2022-12-22T07:52:19.590Z,369.13
2022-12-22T07:53:19.692Z,365.05
2022-12-22T07:54:19.789Z,367.90
2022-12-22T07:55:19.892Z,368.72
2022-12-22T07:56:19.949Z,368.31
2022-12-22T07:57:20.086Z,369.54
2022-12-22T07:58:20.075Z,369.54
2022-12-22T07:59:20.135Z,367.08
2022-12-22T08:00:20.222Z,367.90
2022-12-22T08:01:20.317Z,368.72
2022-12-22T08:02:20.476Z,367.49
2022-12-22T08:03:20.602Z,369.13
2022-12-22T08:04:20.605Z,367.90
2022-12-22T08:05:20.628Z,368.31
2022-12-22T08:06:20.769Z,370.37
2022-12-22T08:07:20.785Z,367.49
2022-12-22T08:08:20.878Z,367.90
2022-12-22T08:09:20.941Z,367.08
2022-12-22T08:10:21.040Z,369.13
2022-12-22T08:11:21.149Z,365.86
2022-12-22T08:12:21.268Z,368.72
2022-12-22T08:13:21.437Z,368.72
2022-12-22T08:14:21.393Z,365.46
2022-12-22T08:15:21.453Z,367.49
2022-12-22T08:16:21.628Z,368.72
2022-12-22T08:17:27.899Z,368.31
2022-12-22T08:18:21.732Z,368.72
2022-12-22T08:19:21.813Z,365.46
2022-12-22T08:20:21.922Z,367.90
2022-12-22T08:21:21.974Z,369.95
2022-12-22T08:22:22.031Z,368.31
2022-12-22T08:23:22.133Z,368.31
2022-12-22T08:24:22.230Z,367.49
2022-12-22T08:25:22.287Z,367.90
2022-12-22T08:26:22.347Z,365.05
2022-12-22T08:27:26.148Z,366.67
2022-12-22T08:28:22.546Z,367.08
2022-12-22T08:29:22.606Z,367.90
2022-12-22T08:30:22.673Z,368.72
2022-12-22T08:31:22.782Z,367.49
2022-12-22T08:32:22.797Z,367.08
2022-12-22T08:33:22.885Z,369.95
2022-12-22T08:34:22.996Z,367.49
2022-12-22T08:35:23.065Z,367.49
2022-12-22T08:36:23.169Z,367.90
2022-12-22T08:37:23.288Z,369.54
2022-12-22T08:38:23.344Z,368.31
2022-12-22T08:39:23.394Z,367.49
2022-12-22T08:40:23.499Z,364.25
2022-12-22T08:41:23.573Z,366.27
2022-12-22T08:42:23.646Z,367.08
2022-12-22T08:43:23.711Z,367.08
2022-12-22T08:44:23.813Z,367.49
2022-12-22T08:45:23.900Z,366.27
2022-12-22T08:46:24.068Z,367.90
2022-12-22T08:47:24.092Z,366.27
2022-12-22T08:48:30.496Z,365.46
2022-12-22T08:49:24.253Z,367.08
2022-12-22T08:50:24.348Z,366.27
2022-12-22T08:51:24.406Z,368.31
2022-12-22T08:52:24.493Z,367.08
2022-12-22T08:54:02.347Z,367.49
2022-12-22T08:54:25.392Z,365.86
2022-12-22T08:55:24.733Z,366.27
2022-12-22T08:56:24.819Z,365.46
2022-12-22T08:57:24.934Z,367.49
2022-12-22T08:58:25.032Z,365.46
2022-12-22T08:59:25.100Z,366.67
2022-12-22T09:00:25.192Z,367.90
2022-12-22T09:01:25.406Z,366.27
2022-12-22T09:02:25.517Z,366.27
2022-12-22T09:03:25.562Z,364.25
2022-12-22T09:04:25.562Z,363.45
2022-12-22T09:05:25.595Z,365.05
2022-12-22T09:06:27.554Z,366.27
2022-12-22T09:07:25.785Z,364.65
2022-12-22T09:08:25.869Z,366.27
2022-12-22T09:09:25.967Z,365.46
2022-12-22T09:10:26.091Z,366.27
2022-12-22T09:11:26.166Z,366.27
2022-12-22T09:12:26.214Z,364.25
2022-12-22T09:13:26.325Z,365.86
2022-12-22T09:14:26.414Z,366.67
2022-12-22T09:15:26.522Z,365.05
2022-12-22T09:16:26.635Z,365.05
2022-12-22T09:17:26.761Z,365.46
2022-12-22T09:18:26.766Z,368.31
2022-12-22T09:19:32.813Z,366.67
2022-12-22T09:20:26.946Z,366.27
2022-12-22T09:21:27.011Z,367.08
2022-12-22T09:22:28.620Z,367.08
2022-12-22T09:23:27.191Z,366.67
2022-12-22T09:24:27.277Z,367.49
2022-12-22T09:25:27.363Z,367.08
2022-12-22T09:26:27.482Z,366.67
2022-12-22T09:27:27.565Z,367.08
2022-12-22T09:28:27.666Z,367.08
2022-12-22T09:29:27.759Z,366.27
2022-12-22T09:30:27.838Z,367.90
2022-12-22T09:31:27.987Z,365.86
2022-12-22T09:32:28.052Z,366.27
2022-12-22T09:33:28.091Z,366.27
2022-12-22T09:34:28.167Z,367.08
2022-12-22T09:35:28.247Z,366.67
2022-12-22T09:36:28.338Z,367.90
2022-12-22T09:37:28.427Z,365.86
2022-12-22T09:38:28.514Z,366.27
2022-12-22T09:39:29.605Z,366.27
2022-12-22T09:40:28.677Z,367.08
2022-12-22T09:41:28.795Z,367.08
2022-12-22T09:42:28.868Z,365.86
2022-12-22T09:43:28.929Z,365.86
2022-12-22T09:44:29.031Z,367.08
2022-12-22T09:45:29.136Z,366.27
2022-12-22T09:46:29.198Z,365.46
2022-12-22T09:47:29.260Z,365.86
2022-12-22T09:48:29.334Z,366.67
2022-12-22T09:49:29.395Z,366.67
2022-12-22T09:50:35.977Z,365.86
2022-12-22T09:51:29.601Z,365.05
2022-12-22T09:52:29.692Z,365.86
2022-12-22T09:53:29.776Z,366.27
2022-12-22T09:54:29.864Z,364.65
2022-12-22T09:55:29.952Z,367.90
2022-12-22T09:56:30.058Z,366.27
2022-12-22T09:57:30.123Z,367.08
2022-12-22T09:58:30.243Z,366.27
2022-12-22T09:59:30.275Z,365.05
2022-12-22T10:00:30.388Z,365.86
2022-12-22T10:01:30.484Z,365.46
2022-12-22T10:02:30.631Z,364.65
2022-12-22T10:03:30.619Z,366.27
2022-12-22T10:04:30.674Z,365.05
2022-12-22T10:05:30.804Z,365.86
2022-12-22T10:06:30.830Z,364.65
2022-12-22T10:07:30.919Z,364.25
2022-12-22T10:08:31.032Z,367.08
2022-12-22T10:09:50.131Z,365.86
2022-12-22T10:10:31.155Z,366.67
2022-12-22T10:11:31.205Z,365.86
2022-12-22T10:12:31.307Z,364.65
2022-12-22T10:13:31.396Z,365.46
2022-12-22T10:14:31.486Z,365.86
2022-12-22T10:15:31.529Z,365.46
2022-12-22T10:16:31.675Z,365.86
2022-12-22T10:17:31.757Z,365.86
2022-12-22T10:18:31.818Z,366.27
2022-12-22T10:19:31.935Z,365.86
2022-12-22T10:20:32.046Z,366.27
2022-12-22T10:21:42.731Z,366.27
2022-12-22T10:22:32.184Z,365.05
2022-12-22T10:23:32.274Z,364.25
2022-12-22T10:24:32.347Z,366.27
2022-12-22T10:25:52.293Z,365.05
2022-12-22T10:26:32.540Z,365.46
2022-12-22T10:27:32.577Z,365.05
2022-12-22T10:28:32.673Z,365.05
2022-12-22T10:29:32.788Z,361.46
2022-12-22T10:30:32.834Z,364.65
2022-12-22T10:31:33.118Z,364.65
2022-12-22T10:32:33.003Z,363.85
2022-12-22T10:33:33.087Z,363.05
2022-12-22T10:34:33.186Z,364.25
2022-12-22T10:35:33.265Z,364.65
2022-12-22T10:36:33.365Z,364.25
2022-12-22T10:37:33.447Z,363.45
2022-12-22T10:38:33.555Z,364.65
2022-12-22T10:39:33.602Z,365.46
2022-12-22T10:40:33.683Z,363.45
2022-12-22T10:41:33.748Z,364.25
2022-12-22T10:42:33.868Z,365.05
2022-12-22T10:43:33.974Z,364.25
2022-12-22T10:44:34.072Z,363.85
2022-12-22T10:45:34.186Z,363.05
2022-12-22T10:46:34.321Z,363.45
2022-12-22T10:47:34.238Z,364.25
2022-12-22T10:48:34.346Z,364.25
2022-12-22T10:50:12.605Z,434.28
2022-12-22T10:51:13.680Z,421.21
2022-12-22T10:52:13.772Z,413.43
2022-12-22T10:53:13.810Z,409.40
2022-12-22T10:54:13.912Z,401.57
2022-12-22T10:55:13.999Z,400.61
2022-12-22T10:56:14.068Z,397.53
2022-12-22T10:57:14.221Z,395.42
2022-12-22T10:58:14.239Z,394.03
2022-12-22T10:59:14.354Z,390.82
2022-12-22T11:00:14.436Z,390.37
2022-12-22T11:01:14.595Z,386.55
2022-12-22T11:02:14.769Z,388.11
2022-12-22T11:03:20.605Z,384.12
2022-12-22T11:04:14.764Z,383.90
2022-12-22T11:05:14.820Z,385.66
2022-12-22T11:06:14.890Z,383.46
2022-12-22T11:07:14.968Z,381.94
2022-12-22T11:08:15.028Z,381.07
2022-12-22T11:09:33.314Z,379.56
2022-12-22T11:10:15.328Z,381.72
2022-12-22T11:11:15.292Z,376.70
2022-12-22T11:12:15.390Z,379.14
2022-12-22T11:13:15.488Z,379.35
2022-12-22T11:14:15.775Z,379.56
2022-12-22T11:15:21.970Z,377.86
2022-12-22T11:16:15.762Z,374.57
2022-12-22T11:17:15.840Z,376.27
2022-12-22T11:18:15.884Z,374.14
2022-12-22T11:19:15.988Z,373.30
2022-12-22T11:20:21.987Z,374.57
2022-12-22T11:21:21.985Z,374.99
2022-12-22T11:22:16.194Z,372.88
2022-12-22T11:23:16.264Z,372.88
2022-12-22T11:24:16.424Z,371.20
2022-12-22T11:25:16.428Z,370.37
2022-12-22T11:26:16.489Z,368.72
2022-12-22T11:27:16.569Z,369.54
2022-12-22T11:28:16.630Z,370.79
2022-12-22T11:29:16.732Z,366.27
2022-12-22T11:30:16.830Z,366.67
2022-12-22T11:31:16.986Z,367.90
2022-12-22T11:32:16.949Z,368.72
2022-12-22T11:33:17.022Z,367.90
2022-12-22T11:34:21.089Z,368.31
2022-12-22T11:35:17.347Z,365.46
2022-12-22T11:36:17.297Z,367.90
2022-12-22T11:37:17.364Z,366.27
2022-12-22T11:38:17.423Z,365.05
2022-12-22T11:39:17.483Z,362.65
2022-12-22T11:40:17.579Z,363.85
2022-12-22T11:41:17.664Z,366.67
2022-12-22T11:42:17.725Z,363.85
2022-12-22T11:43:17.819Z,366.27
2022-12-22T11:44:17.888Z,366.27
2022-12-22T11:45:17.946Z,365.86
2022-12-22T11:46:18.096Z,365.05
2022-12-22T11:47:18.147Z,363.85
2022-12-22T11:48:18.206Z,365.46
2022-12-22T11:49:18.287Z,365.05
2022-12-22T11:51:00.024Z,366.67
2022-12-22T11:51:28.033Z,361.46
2022-12-22T11:52:18.543Z,365.05
2022-12-22T11:53:18.599Z,364.25
2022-12-22T11:54:18.698Z,363.85
2022-12-22T11:55:18.762Z,363.45
2022-12-22T11:56:18.860Z,363.85
2022-12-22T11:57:19.015Z,362.65
2022-12-22T11:58:19.033Z,363.05
2022-12-22T11:59:19.155Z,364.65
2022-12-22T12:00:19.235Z,363.45
2022-12-22T12:01:25.665Z,363.45
2022-12-22T12:02:19.600Z,363.05
2022-12-22T12:03:19.589Z,362.25
2022-12-22T12:04:19.564Z,361.86
2022-12-22T12:05:19.635Z,361.86
2022-12-22T12:06:19.669Z,363.45
2022-12-22T12:07:25.441Z,361.46
2022-12-22T12:08:19.815Z,362.65
2022-12-22T12:09:19.956Z,361.46
2022-12-22T12:10:20.038Z,362.65
2022-12-22T12:11:20.080Z,359.49
2022-12-22T12:12:20.147Z,360.67
2022-12-22T12:13:27.375Z,361.46
2022-12-22T12:14:20.362Z,360.67
2022-12-22T12:15:20.447Z,361.86
2022-12-22T12:16:20.609Z,361.46
2022-12-22T12:17:20.608Z,361.07
2022-12-22T12:18:20.676Z,362.25
2022-12-22T12:19:26.575Z,361.07
2022-12-22T12:20:20.871Z,358.71
2022-12-22T12:21:20.950Z,362.65
2022-12-22T12:22:27.308Z,363.85
2022-12-22T12:23:21.099Z,361.86
2022-12-22T12:24:21.194Z,361.46
2022-12-22T12:25:25.724Z,361.07
2022-12-22T12:26:21.384Z,361.46
2022-12-22T12:27:21.471Z,364.25
2022-12-22T12:28:21.555Z,360.67
2022-12-22T12:29:21.621Z,363.05
2022-12-22T12:30:37.872Z,363.85